Pendleton, North Carolina
Current Conditions -  °F | °C
As of 8:35 AM on Friday 28 Nov 2014 (Local Time) from KASJ Reporting Station
Clear Clear  
Wind Chill: 33°   Ceiling: Unl
Heat Index: 33°   Visibility: 10mi
Dew Point: 25°   Wind: 0mph
Humidity: 73%   Direction: NA
Pressure: 30.34"   Gusts: NA
Location:  36.47°N, 77.2°W
Report Text: KASJ 281335Z AUTO 00000KT 10SM CLR 00/M04 A3034 RMK AO2 T00031040
Loading
Personal Weather Stations






























Interactive Weather Map New forecast layout! Learn more

10-Day Weather Forecast

Advertisements
Track Severe Weather on mobile